Time;durP1;ratioP1;P1;durP2;ratioP2;P2;SDS_P1;SDS_P2;PMS_P1;PMS_P2;Temp;Humidity;BMP_temperature;BMP_pressure;BME280_temperature;BME280_humidity;BME280_pressure;Samples;Min_cycle;Max_cycle;Signal;HPM_P1;HPM_P2
2022/01/31 00:01:08;;;;;;;;;8.00;6.75;;;;;;;;5087183;27;45554;-79
2022/01/31 00:03:34;;;;;;;;;6.00;5.00;;;;;;;;5084831;27;45424;-80
2022/01/31 00:06:03;;;;;;;;;9.25;8.25;;;;;;;;5091518;27;45348;-80
2022/01/31 00:08:29;;;;;;;;;8.75;6.00;;;;;;;;5092993;27;47628;-80
2022/01/31 00:10:54;;;;;;;;;10.75;6.25;;;;;;;;5086143;27;45352;-81
2022/01/31 00:13:39;;;;;;;;;12.50;7.50;;;;;;;;5090034;27;45226;-81
2022/01/31 00:16:05;;;;;;;;;10.50;6.25;;;;;;;;5084125;27;45541;-79
2022/01/31 00:18:30;;;;;;;;;7.50;6.25;;;;;;;;5089179;27;45173;-80
2022/01/31 00:20:55;;;;;;;;;7.75;6.00;;;;;;;;5083530;27;45534;-79
2022/01/31 00:23:21;;;;;;;;;9.25;8.00;;;;;;;;5087626;27;45321;-79
2022/01/31 00:25:46;;;;;;;;;11.50;8.25;;;;;;;;5084405;27;45314;-80
2022/01/31 00:28:11;;;;;;;;;8.00;5.25;;;;;;;;5082487;27;46051;-79
2022/01/31 00:30:36;;;;;;;;;8.00;7.00;;;;;;;;5084203;27;47054;-79
2022/01/31 00:33:02;;;;;;;;;11.75;8.25;;;;;;;;5082648;27;45334;-79
2022/01/31 00:35:27;;;;;;;;;9.00;7.00;;;;;;;;5084191;27;45326;-80
2022/01/31 00:37:53;;;;;;;;;8.00;6.00;;;;;;;;5089784;27;45485;-80
2022/01/31 00:40:18;;;;;;;;;8.25;7.00;;;;;;;;5082894;27;46963;-80
2022/01/31 00:42:43;;;;;;;;;9.75;8.75;;;;;;;;5083336;27;45397;-80
2022/01/31 00:45:14;;;;;;;;;8.75;8.00;;;;;;;;5079503;27;45275;-80
2022/01/31 00:47:44;;;;;;;;;8.00;8.00;;;;;;;;5086687;27;45323;-79
2022/01/31 00:50:11;;;;;;;;;5.25;4.00;;;;;;;;5081520;27;46786;-79
2022/01/31 00:52:38;;;;;;;;;8.50;7.00;;;;;;;;5087924;27;45258;-79
2022/01/31 00:55:04;;;;;;;;;7.00;6.00;;;;;;;;5093621;27;45250;-81
2022/01/31 00:57:29;;;;;;;;;8.00;7.00;;;;;;;;5085329;27;45535;-81
2022/01/31 00:59:55;;;;;;;;;8.00;6.00;;;;;;;;5092287;27;45719;-81
2022/01/31 01:02:20;;;;;;;;;6.00;4.50;;;;;;;;5083346;27;45373;-80
2022/01/31 01:04:46;;;;;;;;;8.75;5.00;;;;;;;;5094012;27;45330;-81
2022/01/31 01:07:11;;;;;;;;;7.00;5.50;;;;;;;;5084519;27;45507;-81
2022/01/31 01:09:37;;;;;;;;;7.50;6.50;;;;;;;;5089344;27;45639;-81
2022/01/31 01:12:03;;;;;;;;;6.25;3.50;;;;;;;;5082241;27;45287;-81
2022/01/31 01:14:28;;;;;;;;;8.00;7.00;;;;;;;;5090751;27;45314;-82
2022/01/31 01:16:53;;;;;;;;;8.50;4.75;;;;;;;;5081319;27;45326;-81
2022/01/31 01:19:18;;;;;;;;;6.00;4.00;;;;;;;;5085266;27;46958;-81
2022/01/31 01:21:44;;;;;;;;;6.75;4.00;;;;;;;;5084455;27;45635;-81
2022/01/31 01:24:09;;;;;;;;;6.00;4.50;;;;;;;;5088402;27;45218;-81
2022/01/31 01:26:34;;;;;;;;;8.00;3.25;;;;;;;;5081830;27;45337;-81
2022/01/31 01:29:00;;;;;;;;;7.25;4.50;;;;;;;;5081753;27;47898;-82
2022/01/31 01:31:26;;;;;;;;;8.75;3.25;;;;;;;;5080943;27;45263;-81
2022/01/31 01:33:52;;;;;;;;;4.50;3.00;;;;;;;;5082499;27;45179;-82
2022/01/31 01:36:20;;;;;;;;;3.50;2.00;;;;;;;;5080330;27;45293;-81
2022/01/31 01:38:45;;;;;;;;;6.75;3.25;;;;;;;;5092889;27;47146;-81
2022/01/31 01:41:10;;;;;;;;;8.00;3.00;;;;;;;;5078936;27;45266;-80
2022/01/31 01:43:38;;;;;;;;;6.75;2.75;;;;;;;;5091986;27;45264;-80
2022/01/31 01:46:03;;;;;;;;;4.75;2.25;;;;;;;;5079240;27;45418;-80
2022/01/31 01:48:28;;;;;;;;;4.00;3.25;;;;;;;;5093071;27;46350;-80
2022/01/31 01:50:54;;;;;;;;;2.50;2.00;;;;;;;;5083275;27;45303;-80
2022/01/31 01:53:19;;;;;;;;;7.75;5.50;;;;;;;;5089682;27;45335;-80
2022/01/31 01:55:46;;;;;;;;;9.00;3.00;;;;;;;;5081044;27;46006;-81
2022/01/31 01:58:15;;;;;;;;;9.25;6.00;;;;;;;;5087023;27;48405;-81
2022/01/31 02:00:51;;;;;;;;;3.25;1.75;;;;;;;;5100554;27;45437;-80
2022/01/31 02:03:20;;;;;;;;;5.00;3.00;;;;;;;;5091943;27;45387;-80
2022/01/31 02:05:46;;;;;;;;;5.50;2.00;;;;;;;;5091041;27;45577;-80
2022/01/31 02:08:13;;;;;;;;;6.25;3.00;;;;;;;;5086913;27;47671;-80
2022/01/31 02:10:38;;;;;;;;;3.25;2.00;;;;;;;;5090990;27;45290;-80
2022/01/31 02:13:04;;;;;;;;;3.50;2.50;;;;;;;;5087545;27;45258;-80
2022/01/31 02:15:30;;;;;;;;;7.00;3.50;;;;;;;;5090673;27;45206;-79
2022/01/31 02:17:55;;;;;;;;;4.75;4.00;;;;;;;;5088722;27;45259;-81
2022/01/31 02:20:20;;;;;;;;;4.25;3.50;;;;;;;;5091096;27;45274;-81
2022/01/31 02:22:46;;;;;;;;;6.25;3.25;;;;;;;;5086259;27;45188;-81
2022/01/31 02:25:12;;;;;;;;;7.00;4.50;;;;;;;;5088566;27;45401;-81
2022/01/31 02:27:38;;;;;;;;;5.75;2.75;;;;;;;;5083588;27;47195;-82
2022/01/31 02:30:05;;;;;;;;;9.00;6.00;;;;;;;;5087313;27;44650;-81
2022/01/31 02:32:30;;;;;;;;;4.50;3.25;;;;;;;;5084690;27;45311;-81
2022/01/31 02:34:55;;;;;;;;;9.00;3.00;;;;;;;;5092779;27;46254;-80
2022/01/31 02:37:21;;;;;;;;;4.50;2.50;;;;;;;;5089511;27;45531;-80
2022/01/31 02:39:46;;;;;;;;;2.00;2.00;;;;;;;;5089580;27;45312;-80
2022/01/31 02:42:12;;;;;;;;;6.00;3.75;;;;;;;;5084562;27;45484;-80
2022/01/31 02:44:41;;;;;;;;;6.00;4.00;;;;;;;;5090268;27;46060;-79
2022/01/31 02:47:11;;;;;;;;;3.75;2.50;;;;;;;;5084476;27;45682;-79
2022/01/31 02:49:45;;;;;;;;;3.50;2.00;;;;;;;;5088685;27;45428;-80
2022/01/31 02:52:13;;;;;;;;;4.50;4.00;;;;;;;;5087466;27;44921;-79
2022/01/31 02:54:38;;;;;;;;;5.50;2.50;;;;;;;;5094412;27;45386;-80
2022/01/31 02:57:03;;;;;;;;;4.00;3.00;;;;;;;;5091008;27;45437;-80
2022/01/31 02:59:29;;;;;;;;;4.75;2.25;;;;;;;;5090101;27;45328;-80
2022/01/31 03:01:54;;;;;;;;;5.25;2.50;;;;;;;;5083155;27;45464;-81
2022/01/31 03:04:19;;;;;;;;;6.00;2.00;;;;;;;;5087014;27;45852;-79
2022/01/31 03:06:49;;;;;;;;;4.00;3.50;;;;;;;;5084238;27;45420;-81
2022/01/31 03:09:14;;;;;;;;;6.50;1.75;;;;;;;;5092657;27;45436;-81
2022/01/31 03:11:39;;;;;;;;;2.00;2.00;;;;;;;;5085116;27;45306;-81
2022/01/31 03:14:04;;;;;;;;;6.00;3.00;;;;;;;;5095797;27;46044;-81
2022/01/31 03:16:30;;;;;;;;;4.50;3.50;;;;;;;;5082232;27;46357;-81
2022/01/31 03:18:55;;;;;;;;;8.00;1.00;;;;;;;;5089588;27;45992;-81
2022/01/31 03:21:20;;;;;;;;;6.00;1.25;;;;;;;;5082443;27;45527;-81
2022/01/31 03:23:49;;;;;;;;;2.75;2.75;;;;;;;;5089118;27;45273;-81
2022/01/31 03:26:14;;;;;;;;;2.00;2.00;;;;;;;;5093339;27;48495;-81
2022/01/31 03:28:39;;;;;;;;;6.25;1.75;;;;;;;;5087533;27;45401;-81
2022/01/31 03:31:05;;;;;;;;;2.00;2.00;;;;;;;;5081024;27;45306;-80
2022/01/31 03:33:32;;;;;;;;;3.00;2.00;;;;;;;;5091601;27;45234;-81
2022/01/31 03:35:57;;;;;;;;;2.00;0.00;;;;;;;;5085993;27;47346;-81
2022/01/31 03:38:22;;;;;;;;;4.25;3.00;;;;;;;;5090909;27;45392;-81
2022/01/31 03:40:47;;;;;;;;;6.00;2.00;;;;;;;;5079711;28;45374;-82
2022/01/31 03:43:13;;;;;;;;;5.00;1.50;;;;;;;;5091363;27;45442;-82
2022/01/31 03:45:38;;;;;;;;;5.75;3.00;;;;;;;;5079513;27;47468;-82
2022/01/31 03:48:06;;;;;;;;;6.25;3.00;;;;;;;;5091062;27;45422;-83
2022/01/31 03:50:31;;;;;;;;;7.50;2.00;;;;;;;;5080736;28;45338;-82
2022/01/31 03:52:56;;;;;;;;;2.00;2.00;;;;;;;;5084950;27;47234;-83
2022/01/31 03:55:21;;;;;;;;;2.25;1.50;;;;;;;;5092820;27;47099;-83
2022/01/31 03:57:47;;;;;;;;;2.50;2.50;;;;;;;;5085148;27;45483;-80
2022/01/31 04:00:13;;;;;;;;;1.75;1.75;;;;;;;;5092614;27;45303;-81
2022/01/31 04:02:39;;;;;;;;;2.50;2.00;;;;;;;;5082883;27;45967;-79
2022/01/31 04:05:04;;;;;;;;;5.50;2.25;;;;;;;;5092182;27;47265;-81
2022/01/31 04:07:29;;;;;;;;;2.50;2.00;;;;;;;;5085483;27;45215;-79
2022/01/31 04:09:54;;;;;;;;;2.50;2.00;;;;;;;;5088926;27;45218;-80
2022/01/31 04:12:20;;;;;;;;;3.50;2.00;;;;;;;;5085350;27;45256;-79
2022/01/31 04:14:45;;;;;;;;;2.00;2.00;;;;;;;;5089783;27;45972;-79
2022/01/31 04:17:11;;;;;;;;;0.50;0.50;;;;;;;;5083144;27;45286;-78
2022/01/31 04:19:37;;;;;;;;;1.75;1.00;;;;;;;;5094155;27;45567;-77
2022/01/31 04:22:03;;;;;;;;;4.25;1.25;;;;;;;;5090270;27;45490;-79
2022/01/31 04:24:33;;;;;;;;;3.00;1.00;;;;;;;;5086327;27;46876;-79
2022/01/31 04:27:05;;;;;;;;;1.00;1.00;;;;;;;;5083890;27;46375;-79
2022/01/31 04:29:31;;;;;;;;;1.75;1.75;;;;;;;;5086985;27;45332;-78
2022/01/31 04:31:57;;;;;;;;;3.00;1.50;;;;;;;;5095133;27;45537;-78
2022/01/31 04:34:22;;;;;;;;;4.00;2.00;;;;;;;;5088561;27;45242;-79
2022/01/31 04:36:48;;;;;;;;;3.25;2.00;;;;;;;;5082573;27;45382;-80
2022/01/31 04:39:17;;;;;;;;;1.75;1.75;;;;;;;;5088851;27;45440;-80
2022/01/31 04:41:43;;;;;;;;;0.75;0.75;;;;;;;;5081691;27;45414;-80
2022/01/31 04:44:10;;;;;;;;;4.25;2.00;;;;;;;;5086658;27;47143;-81
2022/01/31 04:46:35;;;;;;;;;2.00;2.00;;;;;;;;5081518;27;45283;-79
2022/01/31 04:49:00;;;;;;;;;2.00;0.25;;;;;;;;5088455;27;45362;-79
2022/01/31 04:51:25;;;;;;;;;2.25;1.50;;;;;;;;5081091;27;45307;-79
2022/01/31 04:53:51;;;;;;;;;1.00;1.00;;;;;;;;5090089;27;46778;-80
2022/01/31 04:56:16;;;;;;;;;2.00;1.00;;;;;;;;5086561;27;45316;-80
2022/01/31 04:58:41;;;;;;;;;4.75;2.25;;;;;;;;5088797;27;45295;-80
2022/01/31 05:01:07;;;;;;;;;1.00;1.00;;;;;;;;5084584;27;46313;-79
2022/01/31 05:03:33;;;;;;;;;2.00;1.00;;;;;;;;5091640;27;45486;-79
2022/01/31 05:05:59;;;;;;;;;0.00;0.00;;;;;;;;5085137;27;45242;-77
2022/01/31 05:08:27;;;;;;;;;2.25;1.25;;;;;;;;5089222;27;45242;-78
2022/01/31 05:10:52;;;;;;;;;1.00;1.00;;;;;;;;5086110;27;45569;-79
2022/01/31 05:13:17;;;;;;;;;2.00;1.00;;;;;;;;5087002;27;45935;-78
2022/01/31 05:15:44;;;;;;;;;3.00;1.00;;;;;;;;5084571;27;45344;-80
2022/01/31 05:18:09;;;;;;;;;1.00;1.00;;;;;;;;5082929;27;45883;-80
2022/01/31 05:20:34;;;;;;;;;5.25;2.00;;;;;;;;5086840;27;45323;-79
2022/01/31 05:22:59;;;;;;;;;2.50;1.00;;;;;;;;5086043;27;45555;-79
2022/01/31 05:25:25;;;;;;;;;1.00;1.00;;;;;;;;5088934;27;45415;-79
2022/01/31 05:27:50;;;;;;;;;2.00;1.00;;;;;;;;5085484;27;45599;-80
2022/01/31 05:30:16;;;;;;;;;0.00;0.00;;;;;;;;5087930;27;45354;-78
2022/01/31 05:32:42;;;;;;;;;1.75;1.00;;;;;;;;5085387;27;47563;-79
2022/01/31 05:35:07;;;;;;;;;0.00;0.00;;;;;;;;5082424;27;45410;-79
2022/01/31 05:37:33;;;;;;;;;2.50;0.75;;;;;;;;5086245;27;45349;-80
2022/01/31 05:39:58;;;;;;;;;0.50;0.50;;;;;;;;5083987;27;45898;-80
2022/01/31 05:42:23;;;;;;;;;1.00;1.00;;;;;;;;5087059;27;46195;-80
2022/01/31 05:44:49;;;;;;;;;2.00;1.00;;;;;;;;5088086;27;45251;-80
2022/01/31 05:47:14;;;;;;;;;1.00;0.00;;;;;;;;5085945;27;47442;-80
2022/01/31 05:49:39;;;;;;;;;1.00;0.75;;;;;;;;5082678;27;45169;-78
2022/01/31 05:52:07;;;;;;;;;3.50;1.00;;;;;;;;5087406;27;45469;-80
2022/01/31 05:54:32;;;;;;;;;1.00;1.00;;;;;;;;5094441;27;45406;-80
2022/01/31 05:56:59;;;;;;;;;1.25;1.00;;;;;;;;5084629;27;45398;-81
2022/01/31 05:59:24;;;;;;;;;0.00;0.00;;;;;;;;5099501;27;45420;-81
2022/01/31 06:01:49;;;;;;;;;1.25;1.00;;;;;;;;5093051;27;47398;-80
2022/01/31 06:04:15;;;;;;;;;3.00;1.00;;;;;;;;5093499;27;45268;-79
2022/01/31 06:06:40;;;;;;;;;1.00;1.00;;;;;;;;5084812;27;45512;-80
2022/01/31 06:09:05;;;;;;;;;3.25;1.00;;;;;;;;5094343;27;45375;-81
2022/01/31 06:11:33;;;;;;;;;2.00;1.50;;;;;;;;5085727;27;46409;-81
2022/01/31 06:14:00;;;;;;;;;2.00;0.75;;;;;;;;5091250;27;45337;-80
2022/01/31 06:16:25;;;;;;;;;1.25;1.00;;;;;;;;5083792;27;45469;-81
2022/01/31 06:18:51;;;;;;;;;2.00;1.50;;;;;;;;5090727;27;45185;-81
2022/01/31 06:21:16;;;;;;;;;1.25;1.25;;;;;;;;5082938;27;46604;-81
2022/01/31 06:23:41;;;;;;;;;1.00;0.25;;;;;;;;5090162;27;45213;-81
2022/01/31 06:26:06;;;;;;;;;1.00;1.00;;;;;;;;5083127;27;45231;-79
2022/01/31 06:28:32;;;;;;;;;2.00;2.00;;;;;;;;5091377;27;45979;-80
2022/01/31 06:30:57;;;;;;;;;1.75;1.00;;;;;;;;5082532;27;45289;-82
2022/01/31 06:33:22;;;;;;;;;3.50;1.50;;;;;;;;5089328;27;46158;-81
2022/01/31 06:35:48;;;;;;;;;1.00;1.00;;;;;;;;5080285;27;45275;-81
2022/01/31 06:38:13;;;;;;;;;1.00;1.00;;;;;;;;5093796;27;45473;-78
2022/01/31 06:40:39;;;;;;;;;3.00;1.25;;;;;;;;5099113;27;47102;-80
2022/01/31 06:43:04;;;;;;;;;2.25;1.00;;;;;;;;5094619;27;45230;-80
2022/01/31 06:45:30;;;;;;;;;1.00;1.00;;;;;;;;5086689;27;45785;-79
2022/01/31 06:47:55;;;;;;;;;2.25;0.00;;;;;;;;5094629;27;45440;-81
2022/01/31 06:50:20;;;;;;;;;2.00;1.00;;;;;;;;5082109;27;47008;-80
2022/01/31 06:52:49;;;;;;;;;3.00;1.00;;;;;;;;5089044;27;45321;-82
2022/01/31 06:55:19;;;;;;;;;1.00;0.00;;;;;;;;5095432;27;45293;-82
2022/01/31 06:57:45;;;;;;;;;2.50;0.50;;;;;;;;5091251;27;45471;-81
2022/01/31 07:00:12;;;;;;;;;0.00;0.00;;;;;;;;5092982;27;45339;-78
2022/01/31 07:02:37;;;;;;;;;1.00;1.00;;;;;;;;5087820;27;45242;-83
2022/01/31 07:05:02;;;;;;;;;0.50;0.50;;;;;;;;5093720;27;45240;-81
2022/01/31 07:07:28;;;;;;;;;1.25;1.25;;;;;;;;5086800;27;45481;-79
2022/01/31 07:09:53;;;;;;;;;2.75;2.00;;;;;;;;5092228;27;45338;-80
2022/01/31 07:12:22;;;;;;;;;4.00;1.00;;;;;;;;5085174;27;45442;-81
2022/01/31 07:14:48;;;;;;;;;3.00;1.00;;;;;;;;5088878;27;45473;-79
2022/01/31 07:17:13;;;;;;;;;2.25;1.00;;;;;;;;5085033;27;45282;-80
2022/01/31 07:19:39;;;;;;;;;1.50;0.50;;;;;;;;5104545;27;45285;-78
2022/01/31 07:22:09;;;;;;;;;0.00;0.00;;;;;;;;5098710;27;45325;-82
2022/01/31 07:27:03;;;;;;;;;2.00;1.00;;;;;;;;5104067;27;45556;-84
2022/01/31 07:29:31;;;;;;;;;2.00;1.00;;;;;;;;5108691;27;47459;-81
2022/01/31 07:31:57;;;;;;;;;5.00;1.00;;;;;;;;5102423;27;45468;-81
2022/01/31 07:34:24;;;;;;;;;2.75;1.50;;;;;;;;5102679;27;45424;-83
2022/01/31 07:36:49;;;;;;;;;0.00;0.00;;;;;;;;5106195;27;46450;-83
2022/01/31 07:39:15;;;;;;;;;4.00;2.00;;;;;;;;5096799;27;45416;-83
2022/01/31 07:41:41;;;;;;;;;0.50;0.50;;;;;;;;5098444;27;45247;-82
2022/01/31 07:44:07;;;;;;;;;1.00;1.00;;;;;;;;5096587;27;45419;-83
2022/01/31 07:46:32;;;;;;;;;1.50;1.25;;;;;;;;5104779;27;45460;-83
2022/01/31 07:48:57;;;;;;;;;1.00;0.00;;;;;;;;5102984;27;47959;-82
2022/01/31 07:51:23;;;;;;;;;3.75;1.75;;;;;;;;5105170;27;45387;-81
2022/01/31 07:53:48;;;;;;;;;2.75;2.00;;;;;;;;5108281;27;45369;-82
2022/01/31 07:56:16;;;;;;;;;3.00;1.00;;;;;;;;5103613;27;45285;-83
2022/01/31 07:58:41;;;;;;;;;1.00;1.00;;;;;;;;5107091;27;45512;-81
2022/01/31 08:01:07;;;;;;;;;1.00;1.00;;;;;;;;5105359;27;45294;-81
2022/01/31 08:03:33;;;;;;;;;6.00;1.00;;;;;;;;5098506;27;45369;-83
2022/01/31 08:05:58;;;;;;;;;4.25;2.75;;;;;;;;5107532;27;45679;-83
2022/01/31 08:08:30;;;;;;;;;3.00;2.00;;;;;;;;5100272;27;47035;-84
2022/01/31 08:10:58;;;;;;;;;2.00;1.00;;;;;;;;5111233;27;45360;-83
2022/01/31 08:13:27;;;;;;;;;1.75;1.75;;;;;;;;5098597;27;45389;-83
2022/01/31 08:16:09;;;;;;;;;2.50;1.00;;;;;;;;5108416;27;45519;-84
2022/01/31 08:18:36;;;;;;;;;3.00;1.25;;;;;;;;5099499;27;47128;-83
2022/01/31 08:21:03;;;;;;;;;7.00;1.00;;;;;;;;5110788;27;45358;-83
2022/01/31 08:23:28;;;;;;;;;4.00;1.00;;;;;;;;5101122;27;45426;-82
2022/01/31 08:25:54;;;;;;;;;3.00;2.00;;;;;;;;5109187;27;45472;-84
2022/01/31 08:28:27;;;;;;;;;1.00;1.00;;;;;;;;5105829;27;45374;-82
2022/01/31 08:30:58;;;;;;;;;2.75;2.50;;;;;;;;5112830;27;45373;-83
2022/01/31 08:34:18;;;;;;;;;2.25;0.75;;;;;;;;5094117;27;45389;-82
2022/01/31 08:36:12;;;;;;;;;3.25;2.00;;;;;;;;5104504;27;45273;-81
2022/01/31 08:38:39;;;;;;;;;4.00;1.00;;;;;;;;5094652;27;45478;-81
2022/01/31 08:41:05;;;;;;;;;3.25;1.75;;;;;;;;5101337;27;45252;-85
2022/01/31 08:43:30;;;;;;;;;4.75;2.00;;;;;;;;5096652;27;45522;-84
2022/01/31 08:45:56;;;;;;;;;2.00;0.00;;;;;;;;5105434;27;44855;-85
2022/01/31 08:48:25;;;;;;;;;3.00;1.25;;;;;;;;5104342;27;45474;-85
2022/01/31 08:50:50;;;;;;;;;2.00;0.00;;;;;;;;5111202;27;45274;-86
2022/01/31 08:53:16;;;;;;;;;3.50;1.75;;;;;;;;5094886;27;45309;-83
2022/01/31 08:55:49;;;;;;;;;3.25;2.00;;;;;;;;5104950;27;45989;-82
2022/01/31 08:58:15;;;;;;;;;3.00;0.75;;;;;;;;5097629;27;47292;-81
2022/01/31 09:00:41;;;;;;;;;6.50;1.50;;;;;;;;5105162;27;45373;-81
2022/01/31 09:05:52;;;;;;;;;7.25;3.50;;;;;;;;5106193;27;45492;-84
2022/01/31 09:08:17;;;;;;;;;4.00;3.00;;;;;;;;5097386;27;46237;-81
2022/01/31 09:10:43;;;;;;;;;2.00;1.25;;;;;;;;5086437;27;45567;-82
2022/01/31 09:13:10;;;;;;;;;2.00;2.00;;;;;;;;5084569;27;45291;-83
2022/01/31 09:15:35;;;;;;;;;4.75;1.75;;;;;;;;5079302;27;45467;-84
2022/01/31 09:18:00;;;;;;;;;7.25;1.00;;;;;;;;5083060;27;45445;-84
2022/01/31 09:20:26;;;;;;;;;3.25;2.00;;;;;;;;5086175;27;45448;-78
2022/01/31 09:22:51;;;;;;;;;3.75;1.00;;;;;;;;5081143;27;45413;-80
2022/01/31 09:25:16;;;;;;;;;3.75;2.00;;;;;;;;5091219;27;45353;-82
2022/01/31 09:27:42;;;;;;;;;4.00;1.75;;;;;;;;5087548;27;45460;-80
2022/01/31 09:30:08;;;;;;;;;1.25;0.75;;;;;;;;5101861;27;45467;-83
2022/01/31 09:32:33;;;;;;;;;4.75;2.00;;;;;;;;5099966;27;45455;-82
2022/01/31 09:34:59;;;;;;;;;1.75;1.00;;;;;;;;5100715;27;45743;-85
2022/01/31 09:37:24;;;;;;;;;3.50;2.00;;;;;;;;5101096;27;47061;-85
2022/01/31 09:39:50;;;;;;;;;2.25;1.00;;;;;;;;5099905;27;45386;-85
2022/01/31 09:42:26;;;;;;;;;4.00;2.00;;;;;;;;5100355;27;45377;-84
2022/01/31 09:50:11;;;;;;;;;2.25;1.00;;;;;;;;5091992;27;45281;-83
2022/01/31 09:52:36;;;;;;;;;2.75;1.00;;;;;;;;5088215;27;45418;-82
2022/01/31 09:55:01;;;;;;;;;3.00;1.00;;;;;;;;5101927;27;45493;-82
2022/01/31 09:57:26;;;;;;;;;6.50;0.75;;;;;;;;5107816;27;45394;-83
2022/01/31 09:59:52;;;;;;;;;1.00;1.00;;;;;;;;5098312;27;45534;-80
2022/01/31 10:02:18;;;;;;;;;4.00;1.50;;;;;;;;5103403;27;45459;-84
2022/01/31 10:04:45;;;;;;;;;2.25;1.00;;;;;;;;5108047;27;45619;-82
2022/01/31 10:07:12;;;;;;;;;2.75;1.75;;;;;;;;5094423;27;47622;-79
2022/01/31 10:09:38;;;;;;;;;2.00;1.00;;;;;;;;5104711;27;45207;-81
2022/01/31 10:17:41;;;;;;;;;3.00;1.50;;;;;;;;5105823;27;45458;-81
2022/01/31 10:20:18;;;;;;;;;3.25;0.00;;;;;;;;5102890;27;45441;-78
2022/01/31 10:22:44;;;;;;;;;1.50;1.50;;;;;;;;5106923;27;45277;-78
2022/01/31 10:25:10;;;;;;;;;2.50;1.50;;;;;;;;5113711;27;45215;-82
2022/01/31 10:27:36;;;;;;;;;5.25;2.50;;;;;;;;5103900;27;45421;-79
2022/01/31 10:30:07;;;;;;;;;6.50;5.50;;;;;;;;5102719;27;45203;-79
2022/01/31 10:32:35;;;;;;;;;4.25;1.75;;;;;;;;5105677;27;45334;-79
2022/01/31 10:35:02;;;;;;;;;5.00;2.50;;;;;;;;5115266;27;45811;-80
2022/01/31 10:37:29;;;;;;;;;1.50;1.25;;;;;;;;5097774;27;47955;-78
2022/01/31 10:53:42;;;;;;;;;2.50;2.00;;;;;;;;5090024;27;45315;-79
2022/01/31 10:56:08;;;;;;;;;1.75;1.75;;;;;;;;5086465;27;45238;-80
2022/01/31 10:58:33;;;;;;;;;4.00;2.75;;;;;;;;5098888;27;47571;-80
2022/01/31 11:01:16;;;;;;;;;0.75;0.00;;;;;;;;5092727;27;45235;-81
2022/01/31 11:03:41;;;;;;;;;1.00;1.00;;;;;;;;5087707;27;45481;-82
2022/01/31 11:06:08;;;;;;;;;1.25;1.25;;;;;;;;5078975;27;46028;-78
2022/01/31 11:08:34;;;;;;;;;1.00;0.00;;;;;;;;5089822;27;46655;-80
2022/01/31 11:10:59;;;;;;;;;0.00;0.00;;;;;;;;5087708;27;45288;-79
2022/01/31 11:13:25;;;;;;;;;2.00;2.00;;;;;;;;5099746;27;45393;-78
2022/01/31 11:15:52;;;;;;;;;3.50;2.00;;;;;;;;5105121;27;45485;-79
2022/01/31 11:18:17;;;;;;;;;1.00;1.00;;;;;;;;5086440;27;45330;-80
2022/01/31 11:20:44;;;;;;;;;2.25;1.00;;;;;;;;5086566;27;45422;-79
2022/01/31 11:23:10;;;;;;;;;0.75;0.75;;;;;;;;5083133;27;46287;-80
2022/01/31 11:25:38;;;;;;;;;2.50;0.50;;;;;;;;5084615;27;45542;-79
2022/01/31 11:28:03;;;;;;;;;4.00;1.00;;;;;;;;5090492;27;45375;-80
2022/01/31 11:30:29;;;;;;;;;1.00;0.50;;;;;;;;5081883;27;45207;-78
2022/01/31 11:32:54;;;;;;;;;1.00;1.00;;;;;;;;5089244;27;45256;-77
2022/01/31 11:35:21;;;;;;;;;2.00;0.75;;;;;;;;5084951;27;47112;-78
2022/01/31 11:37:46;;;;;;;;;2.00;0.25;;;;;;;;5089887;27;45626;-78
2022/01/31 11:40:13;;;;;;;;;3.25;2.00;;;;;;;;5084259;27;45228;-78
2022/01/31 11:42:45;;;;;;;;;2.00;1.00;;;;;;;;5086816;27;45520;-81
2022/01/31 11:45:18;;;;;;;;;3.50;1.75;;;;;;;;5084118;27;45409;-78
2022/01/31 11:47:45;;;;;;;;;3.50;3.00;;;;;;;;5089446;27;45413;-78
2022/01/31 11:50:13;;;;;;;;;4.00;2.00;;;;;;;;5094975;27;45682;-77
2022/01/31 11:52:49;;;;;;;;;2.50;0.00;;;;;;;;5085296;27;45312;-77
2022/01/31 11:55:15;;;;;;;;;0.75;0.00;;;;;;;;5092130;27;46810;-76
2022/01/31 11:57:44;;;;;;;;;0.00;0.00;;;;;;;;5087107;27;45387;-75
2022/01/31 12:00:11;;;;;;;;;3.00;1.50;;;;;;;;5091635;27;45178;-76
2022/01/31 12:02:40;;;;;;;;;2.50;0.75;;;;;;;;5086206;27;45409;-76
2022/01/31 12:05:07;;;;;;;;;2.50;0.00;;;;;;;;5087710;27;45360;-76
2022/01/31 12:07:38;;;;;;;;;1.50;1.50;;;;;;;;5085128;27;46198;-76
2022/01/31 12:10:04;;;;;;;;;2.00;1.00;;;;;;;;5091657;27;45456;-76
2022/01/31 12:13:14;;;;;;;;;3.00;1.00;;;;;;;;5085308;27;45378;-76
2022/01/31 12:18:27;;;;;;;;;1.00;1.00;;;;;;;;5082953;27;45713;-76
2022/01/31 12:23:39;;;;;;;;;3.75;2.75;;;;;;;;5095824;27;45432;-77
2022/01/31 12:26:24;;;;;;;;;0.75;0.75;;;;;;;;5081064;27;45354;-75
2022/01/31 12:29:01;;;;;;;;;5.00;0.75;;;;;;;;5092174;27;45350;-76
2022/01/31 12:31:29;;;;;;;;;3.00;1.00;;;;;;;;5079554;27;45288;-76
2022/01/31 12:33:55;;;;;;;;;1.75;0.50;;;;;;;;5089695;27;45354;-76
2022/01/31 12:36:32;;;;;;;;;2.00;1.00;;;;;;;;5080364;27;45296;-76
2022/01/31 12:38:57;;;;;;;;;2.00;0.75;;;;;;;;5091403;27;45520;-77
2022/01/31 12:41:31;;;;;;;;;2.00;1.00;;;;;;;;5087408;27;45473;-81
2022/01/31 12:44:15;;;;;;;;;3.00;1.00;;;;;;;;5088391;27;45418;-80
2022/01/31 12:46:49;;;;;;;;;0.00;0.00;;;;;;;;5080466;27;45255;-80
2022/01/31 12:49:15;;;;;;;;;1.00;1.00;;;;;;;;5090645;27;46460;-80
2022/01/31 12:51:56;;;;;;;;;0.50;0.00;;;;;;;;5084404;27;45235;-79
2022/01/31 12:54:22;;;;;;;;;1.00;1.00;;;;;;;;5091084;27;44744;-78
2022/01/31 12:56:48;;;;;;;;;2.50;1.00;;;;;;;;5083588;27;45576;-76
2022/01/31 12:59:14;;;;;;;;;2.00;1.00;;;;;;;;5093133;27;46415;-76
2022/01/31 13:01:41;;;;;;;;;0.25;0.25;;;;;;;;5083389;27;45547;-78
2022/01/31 13:04:08;;;;;;;;;0.75;0.75;;;;;;;;5081774;27;45359;-78
2022/01/31 13:06:35;;;;;;;;;1.75;0.50;;;;;;;;5093839;27;47500;-80
2022/01/31 13:09:06;;;;;;;;;1.00;1.00;;;;;;;;5094671;27;46553;-78
2022/01/31 13:11:32;;;;;;;;;0.25;0.25;;;;;;;;5083293;27;45353;-79
2022/01/31 13:14:23;;;;;;;;;1.00;1.00;;;;;;;;5091799;27;45224;-79
2022/01/31 13:17:01;;;;;;;;;3.00;2.00;;;;;;;;5077956;27;45290;-78
2022/01/31 13:19:27;;;;;;;;;0.25;0.00;;;;;;;;5085827;27;45400;-80
2022/01/31 13:21:54;;;;;;;;;5.25;3.25;;;;;;;;5081285;27;45382;-80
2022/01/31 13:24:20;;;;;;;;;1.50;1.00;;;;;;;;5083732;27;45378;-81
2022/01/31 13:26:58;;;;;;;;;1.00;1.00;;;;;;;;5081074;27;45408;-80
2022/01/31 13:29:31;;;;;;;;;4.25;4.25;;;;;;;;5087479;27;45391;-80
2022/01/31 13:31:56;;;;;;;;;1.00;1.00;;;;;;;;5081488;27;45834;-80
2022/01/31 13:34:35;;;;;;;;;0.00;0.00;;;;;;;;5087997;27;45464;-82
2022/01/31 13:37:00;;;;;;;;;2.75;1.00;;;;;;;;5083038;27;45558;-79
2022/01/31 13:39:25;;;;;;;;;1.00;1.00;;;;;;;;5087465;27;45891;-78
2022/01/31 13:41:50;;;;;;;;;3.00;0.25;;;;;;;;5080989;27;45279;-79
2022/01/31 13:44:16;;;;;;;;;3.00;0.00;;;;;;;;5090932;27;44760;-79
2022/01/31 13:46:48;;;;;;;;;1.00;0.00;;;;;;;;5083483;27;45331;-79
2022/01/31 13:49:18;;;;;;;;;2.25;1.00;;;;;;;;5100713;27;47495;-77
2022/01/31 13:51:46;;;;;;;;;3.25;3.25;;;;;;;;5087034;27;44984;-78
2022/01/31 13:54:14;;;;;;;;;1.00;1.00;;;;;;;;5094963;27;45500;-78
2022/01/31 13:56:44;;;;;;;;;1.75;1.75;;;;;;;;5087893;27;45227;-78
2022/01/31 13:59:09;;;;;;;;;6.75;4.25;;;;;;;;5095905;27;45326;-78
2022/01/31 14:01:35;;;;;;;;;2.25;1.75;;;;;;;;5086746;27;45362;-78
2022/01/31 14:04:00;;;;;;;;;0.50;0.50;;;;;;;;5094257;27;45364;-79
2022/01/31 14:06:30;;;;;;;;;0.00;0.00;;;;;;;;5085427;27;45566;-79
2022/01/31 14:08:56;;;;;;;;;1.00;1.00;;;;;;;;5092225;27;45590;-79
2022/01/31 14:11:23;;;;;;;;;2.75;1.00;;;;;;;;5086725;27;45465;-79
2022/01/31 14:13:48;;;;;;;;;0.00;0.00;;;;;;;;5090992;27;45449;-80
2022/01/31 14:16:15;;;;;;;;;2.50;0.00;;;;;;;;5082533;27;46369;-79
2022/01/31 14:18:43;;;;;;;;;1.00;1.00;;;;;;;;5091809;27;45715;-79
2022/01/31 14:21:08;;;;;;;;;0.00;0.00;;;;;;;;5084073;27;45424;-80
2022/01/31 14:23:37;;;;;;;;;1.00;1.00;;;;;;;;5088809;27;45486;-78
2022/01/31 14:26:03;;;;;;;;;3.50;1.00;;;;;;;;5083422;27;45216;-82
2022/01/31 14:28:33;;;;;;;;;1.75;0.25;;;;;;;;5084179;27;47120;-81
2022/01/31 14:30:58;;;;;;;;;4.00;0.25;;;;;;;;5082888;27;45196;-79
2022/01/31 14:33:23;;;;;;;;;0.75;0.75;;;;;;;;5092671;27;45193;-78
2022/01/31 14:36:03;;;;;;;;;1.00;1.00;;;;;;;;5081864;27;45520;-82
2022/01/31 14:38:34;;;;;;;;;0.00;0.00;;;;;;;;5092630;27;47292;-84
2022/01/31 14:49:03;;;;;;;;;2.25;1.25;;;;;;;;5091902;27;45494;-82
2022/01/31 14:51:29;;;;;;;;;0.75;0.75;;;;;;;;5088739;27;45457;-83
2022/01/31 14:54:03;;;;;;;;;1.25;0.00;;;;;;;;5090512;27;45215;-82
2022/01/31 14:56:30;;;;;;;;;3.25;1.00;;;;;;;;5087448;27;45535;-81
2022/01/31 14:58:55;;;;;;;;;0.50;0.50;;;;;;;;5097687;27;45467;-81
2022/01/31 15:01:21;;;;;;;;;4.75;3.00;;;;;;;;5086881;27;45266;-81
2022/01/31 15:03:46;;;;;;;;;6.25;3.00;;;;;;;;5096302;27;45319;-82
2022/01/31 15:06:11;;;;;;;;;3.00;1.50;;;;;;;;5086373;27;45398;-81
2022/01/31 15:08:36;;;;;;;;;1.25;1.25;;;;;;;;5089799;27;45300;-82
2022/01/31 15:11:03;;;;;;;;;7.25;7.00;;;;;;;;5088503;27;45291;-83
2022/01/31 15:13:28;;;;;;;;;2.50;2.50;;;;;;;;5086445;27;45490;-82
2022/01/31 15:15:55;;;;;;;;;2.75;2.00;;;;;;;;5085862;27;45285;-84
2022/01/31 15:18:21;;;;;;;;;8.75;5.50;;;;;;;;5086083;27;45377;-83
2022/01/31 15:20:46;;;;;;;;;1.00;1.00;;;;;;;;5084183;27;45398;-81
2022/01/31 15:23:12;;;;;;;;;2.75;1.00;;;;;;;;5091215;27;45337;-80
2022/01/31 15:25:38;;;;;;;;;1.50;1.50;;;;;;;;5089800;27;45333;-84